Capt. Carl Page — WDC6538 — position and weather

sailwx.info

Track history (hours):
 
Tides and Currents Weather Stations Pressure Air Temp Water Temp Dewpoint Dewpoint Depression Visibility Wind Speed Wind Dir Waves Ship Positions

Capt. Carl Page

Owner: American Commercial Lines LLC, Jeffersonville, IN. More information available from US FCC via Universal Licensing System and Coast Guard Vessel Documentation Center.

Last reported at 2018-Apr-17 21:11 UTC. Time now 2018-Apr-21 17:03 UTC.
Position N 32°37' W 091°09'.

Length 55 m; draft 3.1 m.

Type: Towing. MMSI: 367057650.

Date/timePositionNaut miles runAvg speedWind from/ knotsBaromVisibWave heightAir tempDewpointWater temp
2018-Apr-17 21:11N 32°37' W 091°09'1 5.0
2018-Apr-17 20:59N 32°36' W 091°08'2 4.1
2018-Apr-17 20:30N 32°34' W 091°07'2 5.0
2018-Apr-17 20:00N 32°32' W 091°07'2 4.8
2018-Apr-17 19:30N 32°29' W 091°07'2 3.8
2018-Apr-17 19:00N 32°28' W 091°06'2 4.8
2018-Apr-17 18:30N 32°27' W 091°03'2 4.5
2018-Apr-17 18:00N 32°26' W 091°01'2 4.1
2018-Apr-17 17:30N 32°24' W 090°60'2 4.5
2018-Apr-17 17:00N 32°22' W 091°00'2 4.0
2018-Apr-17 16:30N 32°21' W 090°58'0 0.1
2018-Apr-17 16:00N 32°21' W 090°58'1 1.9
2018-Apr-17 15:30N 32°21' W 090°57'2 4.4
2018-Apr-17 15:00N 32°20' W 090°54'2 4.2
2018-Apr-17 14:30N 32°18' W 090°56'1 2.5
2018-Apr-17 14:00N 32°17' W 090°57'2 4.4
2018-Apr-17 13:30N 32°15' W 090°58'3 5.0
2018-Apr-17 13:00N 32°13' W 090°59'2 4.6
2018-Apr-17 12:30N 32°11' W 090°60'2 4.4
2018-Apr-17 12:00N 32°09' W 091°00'2 3.7
2018-Apr-17 11:30N 32°07' W 091°02'2 4.3
2018-Apr-17 10:59N 32°08' W 091°05'2 3.6
2018-Apr-17 10:30N 32°07' W 091°06'2 4.8
2018-Apr-17 10:00N 32°04' W 091°05'3 4.4
2018-Apr-17 09:22N 32°02' W 091°04'7 4.5
2018-Apr-17 07:51N 31°57' W 091°11'9 4.6
2018-Apr-17 05:53N 31°51' W 091°19'2 4.6
2018-Apr-17 05:29N 31°50' W 091°20'  
2018-Apr-13 01:41N 31°16' W 091°33'51 7.8
2018-Apr-12 19:06N 32°01' W 091°05'1 9.8
2018-Apr-12 19:00N 32°01' W 091°04'6 8.0
2018-Apr-12 18:17N 32°07' W 091°06'2 6.5
2018-Apr-12 18:00N 32°08' W 091°05'4 7.6
2018-Apr-12 17:30N 32°09' W 091°00'5 9.6
2018-Apr-12 17:00N 32°13' W 090°59'4 8.4
2018-Apr-12 16:30N 32°17' W 090°57'4 7.8
2018-Apr-12 16:00N 32°21' W 090°55'5 9.2
2018-Apr-12 15:31N 32°22' W 091°00'4 7.7
2018-Apr-12 15:00N 32°26' W 091°01'5 9.5
2018-Apr-12 14:30N 32°28' W 091°06'4 8.4
2018-Apr-12 14:00N 32°32' W 091°06'4 8.6
2018-Apr-12 13:30N 32°36' W 091°08'4 8.0
2018-Apr-12 12:59N 32°40' W 091°08'5 8.5
2018-Apr-12 12:25N 32°43' W 091°03'5 7.9
2018-Apr-12 11:44N 32°45' W 091°09'2 8.8
2018-Apr-12 11:30N 32°47' W 091°10'16 7.1
2018-Apr-12 09:13N 33°03' W 091°10'  
Track history (hours):
 
Tides and Currents Weather Stations Pressure Air Temp Water Temp Dewpoint Dewpoint Depression Visibility Wind Speed Wind Dir Waves Ship Positions

Capt. Carl Page

Owner: American Commercial Lines LLC, Jeffersonville, IN. More information available from US FCC via Universal Licensing System and Coast Guard Vessel Documentation Center.

Last reported at 2018-Apr-17 21:11 UTC. Time now 2018-Apr-21 17:03 UTC.
Position N 32°37' W 091°09'.

Length 55 m; draft 3.1 m.

Type: Towing. MMSI: 367057650.

Date/timePositionNaut miles runAvg speedWind from/ knotsBaromVisibWave heightAir tempDewpointWater temp
2018-Apr-17 21:11N 32°37' W 091°09'1 5.0
2018-Apr-17 20:59N 32°36' W 091°08'2 4.1
2018-Apr-17 20:30N 32°34' W 091°07'2 5.0
2018-Apr-17 20:00N 32°32' W 091°07'2 4.8
2018-Apr-17 19:30N 32°29' W 091°07'2 3.8
2018-Apr-17 19:00N 32°28' W 091°06'2 4.8
2018-Apr-17 18:30N 32°27' W 091°03'2 4.5
2018-Apr-17 18:00N 32°26' W 091°01'2 4.1
2018-Apr-17 17:30N 32°24' W 090°60'2 4.5
2018-Apr-17 17:00N 32°22' W 091°00'2 4.0
2018-Apr-17 16:30N 32°21' W 090°58'0 0.1
2018-Apr-17 16:00N 32°21' W 090°58'1 1.9
2018-Apr-17 15:30N 32°21' W 090°57'2 4.4
2018-Apr-17 15:00N 32°20' W 090°54'2 4.2
2018-Apr-17 14:30N 32°18' W 090°56'1 2.5
2018-Apr-17 14:00N 32°17' W 090°57'2 4.4
2018-Apr-17 13:30N 32°15' W 090°58'3 5.0
2018-Apr-17 13:00N 32°13' W 090°59'2 4.6
2018-Apr-17 12:30N 32°11' W 090°60'2 4.4
2018-Apr-17 12:00N 32°09' W 091°00'2 3.7
2018-Apr-17 11:30N 32°07' W 091°02'2 4.3
2018-Apr-17 10:59N 32°08' W 091°05'2 3.6
2018-Apr-17 10:30N 32°07' W 091°06'2 4.8
2018-Apr-17 10:00N 32°04' W 091°05'3 4.4
2018-Apr-17 09:22N 32°02' W 091°04'7 4.5
2018-Apr-17 07:51N 31°57' W 091°11'9 4.6
2018-Apr-17 05:53N 31°51' W 091°19'2 4.6
2018-Apr-17 05:29N 31°50' W 091°20'  
2018-Apr-13 01:41N 31°16' W 091°33'51 7.8
2018-Apr-12 19:06N 32°01' W 091°05'1 9.8
2018-Apr-12 19:00N 32°01' W 091°04'6 8.0
2018-Apr-12 18:17N 32°07' W 091°06'2 6.5
2018-Apr-12 18:00N 32°08' W 091°05'4 7.6
2018-Apr-12 17:30N 32°09' W 091°00'5 9.6
2018-Apr-12 17:00N 32°13' W 090°59'4 8.4
2018-Apr-12 16:30N 32°17' W 090°57'4 7.8
2018-Apr-12 16:00N 32°21' W 090°55'5 9.2
2018-Apr-12 15:31N 32°22' W 091°00'4 7.7
2018-Apr-12 15:00N 32°26' W 091°01'5 9.5
2018-Apr-12 14:30N 32°28' W 091°06'4 8.4
2018-Apr-12 14:00N 32°32' W 091°06'4 8.6
2018-Apr-12 13:30N 32°36' W 091°08'4 8.0
2018-Apr-12 12:59N 32°40' W 091°08'5 8.5
2018-Apr-12 12:25N 32°43' W 091°03'5 7.9
2018-Apr-12 11:44N 32°45' W 091°09'2 8.8
2018-Apr-12 11:30N 32°47' W 091°10'16 7.1
2018-Apr-12 09:13N 33°03' W 091°10'  

Dump ship's entire track history